PWSweather.com
Personal Weather Stations
Station Observations
WD4JKH
Forsyth, GA 31029

Forsyth, GA 31029

Lat: 33.033225, Lon: -83.927995

Elevation: 709

Station Type: Davis Vantage VUE

High Low Average
Temperature 89.0°F31.7°C 69.1°F20.6°C 79.1°F26.2°C
Dew Point 72.9°F22.7°C 68.0°F20.0°C 70.1°F21.2°C
Winds 8.2 mph 13.2 kmh Calm Calm 3.0 mph NE4.8 kmh NE
Wind Gusts 18.0 mph29.0 kmh -- 8.0 mph12.9 kmh
Humidity 97% 54% 76%
Pressure 30.14 in1020.7 mb 30.00 in1015.9 mb -
Precipitation 0.00 in0.0 mm - -
Hour Temp Dew Point Humidity Winds Wind Gusts Pressure Precip Precip Rate Daily Precip Total
12:03 AM 74.7°F23.7°C 69.9°F21.1°C 85% 2.6 mph ENE4.2 kmh ENE 5.0 mph8.0 kmh 30.13 in1020.3 mb 0.00 in0.0 mm 0.00 in0.0 mm 0.00 in0.0 mm
12:08 AM 74.7°F23.7°C 69.9°F21.1°C 85% 3.2 mph NE5.1 kmh NE 6.0 mph9.7 kmh 30.13 in1020.3 mb 0.00 in0.0 mm 0.00 in0.0 mm 0.00 in0.0 mm
12:13 AM 74.8°F23.8°C 70.0°F21.1°C 85% 2.1 mph NE3.4 kmh NE 6.0 mph9.7 kmh 30.13 in1020.3 mb 0.00 in0.0 mm 0.00 in0.0 mm 0.00 in0.0 mm
12:18 AM 74.7°F23.7°C 69.9°F21.1°C 85% 1.5 mph NE2.4 kmh NE 6.0 mph9.7 kmh 30.13 in1020.3 mb 0.00 in0.0 mm 0.00 in0.0 mm 0.00 in0.0 mm
12:23 AM 74.5°F23.6°C 69.7°F20.9°C 85% 1.7 mph NNE2.7 kmh NNE 6.0 mph9.7 kmh 30.14 in1020.7 mb 0.00 in0.0 mm 0.00 in0.0 mm 0.00 in0.0 mm
12:28 AM 74.2°F23.4°C 69.8°F21.0°C 86% 2.6 mph NNE4.2 kmh NNE 5.0 mph8.0 kmh 30.14 in1020.7 mb 0.00 in0.0 mm 0.00 in0.0 mm 0.00 in0.0 mm
12:33 AM 74.1°F23.4°C 69.7°F20.9°C 86% 2.0 mph NE3.2 kmh NE 5.0 mph8.0 kmh 30.14 in1020.7 mb 0.00 in0.0 mm 0.00 in0.0 mm 0.00 in0.0 mm
12:38 AM 73.9°F23.3°C 69.8°F21.0°C 87% 1.0 mph NE1.6 kmh NE 5.0 mph8.0 kmh 30.14 in1020.7 mb 0.00 in0.0 mm 0.00 in0.0 mm 0.00 in0.0 mm
12:43 AM 73.8°F23.2°C 69.7°F20.9°C 87% 2.1 mph NE3.4 kmh NE 5.0 mph8.0 kmh 30.14 in1020.7 mb 0.00 in0.0 mm 0.00 in0.0 mm 0.00 in0.0 mm
12:48 AM 73.8°F23.2°C 69.7°F20.9°C 87% 2.3 mph NE3.7 kmh NE 5.0 mph8.0 kmh 30.14 in1020.7 mb 0.00 in0.0 mm 0.00 in0.0 mm 0.00 in0.0 mm
12:53 AM 73.7°F23.2°C 69.6°F20.9°C 87% 1.7 mph NE2.7 kmh NE 5.0 mph8.0 kmh 30.14 in1020.7 mb 0.00 in0.0 mm 0.00 in0.0 mm 0.00 in0.0 mm
12:58 AM 73.5°F23.1°C 69.4°F20.8°C 87% 1.9 mph NE3.1 kmh NE 5.0 mph8.0 kmh 30.13 in1020.3 mb 0.00 in0.0 mm 0.00 in0.0 mm 0.00 in0.0 mm
01:03 AM 73.4°F23.0°C 69.6°F20.9°C 88% 1.6 mph NE2.6 kmh NE 5.0 mph8.0 kmh 30.13 in1020.3 mb 0.00 in0.0 mm 0.00 in0.0 mm 0.00 in0.0 mm
01:08 AM 73.2°F22.9°C 69.4°F20.8°C 88% 1.8 mph NE2.9 kmh NE 5.0 mph8.0 kmh 30.13 in1020.3 mb 0.00 in0.0 mm 0.00 in0.0 mm 0.00 in0.0 mm
01:13 AM 73.1°F22.8°C 69.3°F20.7°C 88% 1.4 mph NE2.3 kmh NE 5.0 mph8.0 kmh 30.13 in1020.3 mb 0.00 in0.0 mm 0.00 in0.0 mm 0.00 in0.0 mm
01:18 AM 73.0°F22.8°C 69.6°F20.9°C 89% 1.5 mph NE2.4 kmh NE 3.0 mph4.8 kmh 30.13 in1020.3 mb 0.00 in0.0 mm 0.00 in0.0 mm 0.00 in0.0 mm
01:23 AM 72.8°F22.7°C 69.4°F20.8°C 89% 2.5 mph NE4.0 kmh NE 4.0 mph6.4 kmh 30.13 in1020.3 mb 0.00 in0.0 mm 0.00 in0.0 mm 0.00 in0.0 mm
01:28 AM 72.7°F22.6°C 69.3°F20.7°C 89% 1.1 mph NE1.8 kmh NE 4.0 mph6.4 kmh 30.13 in1020.3 mb 0.00 in0.0 mm 0.00 in0.0 mm 0.00 in0.0 mm
01:33 AM 72.6°F22.6°C 69.2°F20.7°C 89% 1.8 mph NNE2.9 kmh NNE 4.0 mph6.4 kmh 30.12 in1020.0 mb 0.00 in0.0 mm 0.00 in0.0 mm 0.00 in0.0 mm
01:38 AM 72.4°F22.4°C 69.3°F20.7°C 90% 1.0 mph NNE1.6 kmh NNE 4.0 mph6.4 kmh 30.13 in1020.3 mb 0.00 in0.0 mm 0.00 in0.0 mm 0.00 in0.0 mm
01:43 AM 72.3°F22.4°C 69.2°F20.7°C 90% 1.7 mph NNE2.7 kmh NNE 4.0 mph6.4 kmh 30.13 in1020.3 mb 0.00 in0.0 mm 0.00 in0.0 mm 0.00 in0.0 mm
01:48 AM 72.1°F22.3°C 69.3°F20.7°C 91% 2.0 mph NE3.2 kmh NE 4.0 mph6.4 kmh 30.12 in1020.0 mb 0.00 in0.0 mm 0.00 in0.0 mm 0.00 in0.0 mm
01:53 AM 72.0°F22.2°C 69.2°F20.7°C 91% 2.3 mph NE3.7 kmh NE 5.0 mph8.0 kmh 30.12 in1020.0 mb 0.00 in0.0 mm 0.00 in0.0 mm 0.00 in0.0 mm
01:58 AM 71.9°F22.2°C 69.1°F20.6°C 91% 1.7 mph NNE2.7 kmh NNE 5.0 mph8.0 kmh 30.12 in1020.0 mb 0.00 in0.0 mm 0.00 in0.0 mm 0.00 in0.0 mm
02:04 AM 71.9°F22.2°C 69.1°F20.6°C 91% 1.8 mph NE2.9 kmh NE 6.0 mph9.7 kmh 30.12 in1020.0 mb 0.00 in0.0 mm 0.00 in0.0 mm 0.00 in0.0 mm
02:08 AM 71.9°F22.2°C 69.1°F20.6°C 91% 1.6 mph NNE2.6 kmh NNE 6.0 mph9.7 kmh 30.11 in1019.6 mb 0.00 in0.0 mm 0.00 in0.0 mm 0.00 in0.0 mm
02:13 AM 71.8°F22.1°C 69.3°F20.7°C 92% 2.4 mph NE3.9 kmh NE 6.0 mph9.7 kmh 30.12 in1020.0 mb 0.00 in0.0 mm 0.00 in0.0 mm 0.00 in0.0 mm
02:17 AM 71.7°F22.1°C 69.2°F20.7°C 92% 2.2 mph NE3.5 kmh NE 6.0 mph9.7 kmh 30.12 in1020.0 mb 0.00 in0.0 mm 0.00 in0.0 mm 0.00 in0.0 mm
02:22 AM 71.6°F22.0°C 69.1°F20.6°C 92% 1.8 mph NE2.9 kmh NE 5.0 mph8.0 kmh 30.11 in1019.6 mb 0.00 in0.0 mm 0.00 in0.0 mm 0.00 in0.0 mm
02:27 AM 71.5°F21.9°C 69.0°F20.6°C 92% 1.0 mph NE1.6 kmh NE 5.0 mph8.0 kmh 30.11 in1019.6 mb 0.00 in0.0 mm 0.00 in0.0 mm 0.00 in0.0 mm
02:32 AM 71.3°F21.8°C 68.8°F20.4°C 92% 1.3 mph NE2.1 kmh NE 5.0 mph8.0 kmh 30.11 in1019.6 mb 0.00 in0.0 mm 0.00 in0.0 mm 0.00 in0.0 mm
02:38 AM 71.3°F21.8°C 69.1°F20.6°C 93% 1.4 mph NE2.3 kmh NE 4.0 mph6.4 kmh 30.11 in1019.6 mb 0.00 in0.0 mm 0.00 in0.0 mm 0.00 in0.0 mm
02:42 AM 71.2°F21.8°C 69.0°F20.6°C 93% 1.6 mph NNE2.6 kmh NNE 5.0 mph8.0 kmh 30.10 in1019.3 mb 0.00 in0.0 mm 0.00 in0.0 mm 0.00 in0.0 mm
02:48 AM 71.1°F21.7°C 68.9°F20.5°C 93% 1.3 mph NE2.1 kmh NE 5.0 mph8.0 kmh 30.11 in1019.6 mb 0.00 in0.0 mm 0.00 in0.0 mm 0.00 in0.0 mm
02:53 AM 71.0°F21.7°C 68.8°F20.4°C 93% 2.8 mph NE4.5 kmh NE 5.0 mph8.0 kmh 30.10 in1019.3 mb 0.00 in0.0 mm 0.00 in0.0 mm 0.00 in0.0 mm
02:58 AM 70.9°F21.6°C 69.1°F20.6°C 94% 1.4 mph NE2.3 kmh NE 5.0 mph8.0 kmh 30.10 in1019.3 mb 0.00 in0.0 mm 0.00 in0.0 mm 0.00 in0.0 mm
03:03 AM 70.9°F21.6°C 69.1°F20.6°C 94% 1.8 mph NE2.9 kmh NE 5.0 mph8.0 kmh 30.11 in1019.6 mb 0.00 in0.0 mm 0.00 in0.0 mm 0.00 in0.0 mm
03:08 AM 70.8°F21.6°C 69.0°F20.6°C 94% 1.4 mph NE2.3 kmh NE 5.0 mph8.0 kmh 30.11 in1019.6 mb 0.00 in0.0 mm 0.00 in0.0 mm 0.00 in0.0 mm
03:13 AM 70.7°F21.5°C 68.9°F20.5°C 94% 1.9 mph NE3.1 kmh NE 5.0 mph8.0 kmh 30.11 in1019.6 mb 0.00 in0.0 mm 0.00 in0.0 mm 0.00 in0.0 mm
03:18 AM 70.6°F21.4°C 68.8°F20.4°C 94% 1.2 mph NE1.9 kmh NE 5.0 mph8.0 kmh 30.10 in1019.3 mb 0.00 in0.0 mm 0.00 in0.0 mm 0.00 in0.0 mm
03:23 AM 70.6°F21.4°C 68.8°F20.4°C 94% 1.7 mph NE2.7 kmh NE 5.0 mph8.0 kmh 30.10 in1019.3 mb 0.00 in0.0 mm 0.00 in0.0 mm 0.00 in0.0 mm
03:28 AM 70.5°F21.4°C 68.7°F20.4°C 94% 1.5 mph NNE2.4 kmh NNE 5.0 mph8.0 kmh 30.10 in1019.3 mb 0.00 in0.0 mm 0.00 in0.0 mm 0.00 in0.0 mm
03:33 AM 70.5°F21.4°C 69.0°F20.6°C 95% 1.4 mph NE2.3 kmh NE 5.0 mph8.0 kmh 30.10 in1019.3 mb 0.00 in0.0 mm 0.00 in0.0 mm 0.00 in0.0 mm
03:38 AM 70.4°F21.3°C 68.9°F20.5°C 95% 2.0 mph NNE3.2 kmh NNE 5.0 mph8.0 kmh 30.10 in1019.3 mb 0.00 in0.0 mm 0.00 in0.0 mm 0.00 in0.0 mm
03:43 AM 70.4°F21.3°C 68.9°F20.5°C 95% Calm Calm 3.0 mph4.8 kmh 30.11 in1019.6 mb 0.00 in0.0 mm 0.00 in0.0 mm 0.00 in0.0 mm
03:48 AM 70.3°F21.3°C 68.8°F20.4°C 95% 1.3 mph N2.1 kmh N 3.0 mph4.8 kmh 30.11 in1019.6 mb 0.00 in0.0 mm 0.00 in0.0 mm 0.00 in0.0 mm
03:53 AM 70.2°F21.2°C 68.7°F20.4°C 95% 1.5 mph NE2.4 kmh NE 3.0 mph4.8 kmh 30.11 in1019.6 mb 0.00 in0.0 mm 0.00 in0.0 mm 0.00 in0.0 mm
03:58 AM 70.2°F21.2°C 68.7°F20.4°C 95% 1.0 mph NE1.6 kmh NE 2.0 mph3.2 kmh 30.11 in1019.6 mb 0.00 in0.0 mm 0.00 in0.0 mm 0.00 in0.0 mm
04:03 AM 70.1°F21.2°C 68.6°F20.3°C 95% 1.1 mph NNE1.8 kmh NNE 2.0 mph3.2 kmh 30.10 in1019.3 mb 0.00 in0.0 mm 0.00 in0.0 mm 0.00 in0.0 mm
04:08 AM 70.1°F21.2°C 68.6°F20.3°C 95% 1.0 mph NE1.6 kmh NE 2.0 mph3.2 kmh 30.11 in1019.6 mb 0.00 in0.0 mm 0.00 in0.0 mm 0.00 in0.0 mm
04:13 AM 70.2°F21.2°C 68.7°F20.4°C 95% 1.4 mph NE2.3 kmh NE 2.0 mph3.2 kmh 30.10 in1019.3 mb 0.00 in0.0 mm 0.00 in0.0 mm 0.00 in0.0 mm
04:18 AM 70.1°F21.2°C 68.6°F20.3°C 95% 1.5 mph NE2.4 kmh NE 2.0 mph3.2 kmh 30.11 in1019.6 mb 0.00 in0.0 mm 0.00 in0.0 mm 0.00 in0.0 mm
04:23 AM 70.1°F21.2°C 68.6°F20.3°C 95% 1.3 mph NE2.1 kmh NE 2.0 mph3.2 kmh 30.11 in1019.6 mb 0.00 in0.0 mm 0.00 in0.0 mm 0.00 in0.0 mm
04:28 AM 70.0°F21.1°C 68.5°F20.3°C 95% 1.7 mph NE2.7 kmh NE 3.0 mph4.8 kmh 30.11 in1019.6 mb 0.00 in0.0 mm 0.00 in0.0 mm 0.00 in0.0 mm
04:33 AM 70.0°F21.1°C 68.5°F20.3°C 95% Calm Calm 3.0 mph4.8 kmh 30.11 in1019.6 mb 0.00 in0.0 mm 0.00 in0.0 mm 0.00 in0.0 mm
04:38 AM 69.9°F21.1°C 68.4°F20.2°C 95% 1.0 mph NNE1.6 kmh NNE 3.0 mph4.8 kmh 30.11 in1019.6 mb 0.00 in0.0 mm 0.00 in0.0 mm 0.00 in0.0 mm
04:43 AM 69.8°F21.0°C 68.3°F20.2°C 95% 1.0 mph NNE1.6 kmh NNE 3.0 mph4.8 kmh 30.11 in1019.6 mb 0.00 in0.0 mm 0.00 in0.0 mm 0.00 in0.0 mm
04:48 AM 69.7°F20.9°C 68.5°F20.3°C 96% 1.0 mph N1.6 kmh N 3.0 mph4.8 kmh 30.11 in1019.6 mb 0.00 in0.0 mm 0.00 in0.0 mm 0.00 in0.0 mm
04:53 AM 69.7°F20.9°C 68.5°F20.3°C 96% 1.4 mph NE2.3 kmh NE 3.0 mph4.8 kmh 30.11 in1019.6 mb 0.00 in0.0 mm 0.00 in0.0 mm 0.00 in0.0 mm
04:58 AM 69.6°F20.9°C 68.4°F20.2°C 96% Calm Calm 3.0 mph4.8 kmh 30.11 in1019.6 mb 0.00 in0.0 mm 0.00 in0.0 mm 0.00 in0.0 mm
05:03 AM 69.6°F20.9°C 68.4°F20.2°C 96% 1.2 mph NE1.9 kmh NE 3.0 mph4.8 kmh 30.11 in1019.6 mb 0.00 in0.0 mm 0.00 in0.0 mm 0.00 in0.0 mm
05:08 AM 69.6°F20.9°C 68.4°F20.2°C 96% Calm Calm 2.0 mph3.2 kmh 30.11 in1019.6 mb 0.00 in0.0 mm 0.00 in0.0 mm 0.00 in0.0 mm
05:13 AM 69.6°F20.9°C 68.4°F20.2°C 96% 1.0 mph NE1.6 kmh NE 2.0 mph3.2 kmh 30.11 in1019.6 mb 0.00 in0.0 mm 0.00 in0.0 mm 0.00 in0.0 mm
05:18 AM 69.6°F20.9°C 68.4°F20.2°C 96% Calm Calm 3.0 mph4.8 kmh 30.12 in1020.0 mb 0.00 in0.0 mm 0.00 in0.0 mm 0.00 in0.0 mm
05:23 AM 69.5°F20.8°C 68.3°F20.2°C 96% 1.9 mph NE3.1 kmh NE 3.0 mph4.8 kmh 30.12 in1020.0 mb 0.00 in0.0 mm 0.00 in0.0 mm 0.00 in0.0 mm
05:28 AM 69.5°F20.8°C 68.3°F20.2°C 96% Calm Calm 3.0 mph4.8 kmh 30.12 in1020.0 mb 0.00 in0.0 mm 0.00 in0.0 mm 0.00 in0.0 mm
05:33 AM 69.5°F20.8°C 68.3°F20.2°C 96% 1.0 mph NE1.6 kmh NE 2.0 mph3.2 kmh 30.12 in1020.0 mb 0.00 in0.0 mm 0.00 in0.0 mm 0.00 in0.0 mm
05:38 AM 69.4°F20.8°C 68.2°F20.1°C 96% Calm Calm 2.0 mph3.2 kmh 30.12 in1020.0 mb 0.00 in0.0 mm 0.00 in0.0 mm 0.00 in0.0 mm
05:43 AM 69.4°F20.8°C 68.2°F20.1°C 96% Calm Calm 1.0 mph1.6 kmh 30.12 in1020.0 mb 0.00 in0.0 mm 0.00 in0.0 mm 0.00 in0.0 mm
05:48 AM 69.4°F20.8°C 68.2°F20.1°C 96% Calm Calm 1.0 mph1.6 kmh 30.12 in1020.0 mb 0.00 in0.0 mm 0.00 in0.0 mm 0.00 in0.0 mm
05:53 AM 69.3°F20.7°C 68.1°F20.1°C 96% 1.0 mph 1.6 kmh 1.0 mph1.6 kmh 30.12 in1020.0 mb 0.00 in0.0 mm 0.00 in0.0 mm 0.00 in0.0 mm
05:58 AM 69.3°F20.7°C 68.1°F20.1°C 96% Calm Calm 1.0 mph1.6 kmh 30.12 in1020.0 mb 0.00 in0.0 mm 0.00 in0.0 mm 0.00 in0.0 mm
06:03 AM 69.2°F20.7°C 68.0°F20.0°C 96% Calm Calm 1.0 mph1.6 kmh 30.12 in1020.0 mb 0.00 in0.0 mm 0.00 in0.0 mm 0.00 in0.0 mm
06:08 AM 69.2°F20.7°C 68.0°F20.0°C 96% Calm Calm 1.0 mph1.6 kmh 30.12 in1020.0 mb 0.00 in0.0 mm 0.00 in0.0 mm 0.00 in0.0 mm
06:13 AM 69.2°F20.7°C 68.0°F20.0°C 96% Calm Calm 1.0 mph1.6 kmh 30.12 in1020.0 mb 0.00 in0.0 mm 0.00 in0.0 mm 0.00 in0.0 mm
06:18 AM 69.2°F20.7°C 68.0°F20.0°C 96% Calm Calm 1.0 mph1.6 kmh 30.12 in1020.0 mb 0.00 in0.0 mm 0.00 in0.0 mm 0.00 in0.0 mm
06:23 AM 69.2°F20.7°C 68.3°F20.2°C 97% 1.1 mph NNE1.8 kmh NNE 2.0 mph3.2 kmh 30.13 in1020.3 mb 0.00 in0.0 mm 0.00 in0.0 mm 0.00 in0.0 mm
06:28 AM 69.2°F20.7°C 68.3°F20.2°C 97% 1.3 mph NNE2.1 kmh NNE 2.0 mph3.2 kmh 30.12 in1020.0 mb 0.00 in0.0 mm 0.00 in0.0 mm 0.00 in0.0 mm
06:33 AM 69.2°F20.7°C 68.3°F20.2°C 97% 1.0 mph NNE1.6 kmh NNE 2.0 mph3.2 kmh 30.13 in1020.3 mb 0.00 in0.0 mm 0.00 in0.0 mm 0.00 in0.0 mm
06:38 AM 69.1°F20.6°C 68.2°F20.1°C 97% Calm Calm 2.0 mph3.2 kmh 30.13 in1020.3 mb 0.00 in0.0 mm 0.00 in0.0 mm 0.00 in0.0 mm
06:43 AM 69.2°F20.7°C 68.3°F20.2°C 97% Calm Calm 2.0 mph3.2 kmh 30.12 in1020.0 mb 0.00 in0.0 mm 0.00 in0.0 mm 0.00 in0.0 mm
06:48 AM 69.2°F20.7°C 68.3°F20.2°C 97% 1.0 mph NE1.6 kmh NE 2.0 mph3.2 kmh 30.13 in1020.3 mb 0.00 in0.0 mm 0.00 in0.0 mm 0.00 in0.0 mm
06:53 AM 69.5°F20.8°C 68.6°F20.3°C 97% Calm Calm 2.0 mph3.2 kmh 30.13 in1020.3 mb 0.00 in0.0 mm 0.00 in0.0 mm 0.00 in0.0 mm
06:58 AM 69.7°F20.9°C 68.5°F20.3°C 96% 1.6 mph NE2.6 kmh NE 2.0 mph3.2 kmh 30.12 in1020.0 mb 0.00 in0.0 mm 0.00 in0.0 mm 0.00 in0.0 mm
07:03 AM 69.9°F21.1°C 68.7°F20.4°C 96% 1.0 mph NE1.6 kmh NE 2.0 mph3.2 kmh 30.12 in1020.0 mb 0.00 in0.0 mm 0.00 in0.0 mm 0.00 in0.0 mm
07:08 AM 70.1°F21.2°C 68.9°F20.5°C 96% Calm Calm 3.0 mph4.8 kmh 30.12 in1020.0 mb 0.00 in0.0 mm 0.00 in0.0 mm 0.00 in0.0 mm
07:13 AM 70.3°F21.3°C 69.1°F20.6°C 96% Calm Calm 3.0 mph4.8 kmh 30.12 in1020.0 mb 0.00 in0.0 mm 0.00 in0.0 mm 0.00 in0.0 mm
07:17 AM 70.5°F21.4°C 69.3°F20.7°C 96% Calm Calm 3.0 mph4.8 kmh 30.13 in1020.3 mb 0.00 in0.0 mm 0.00 in0.0 mm 0.00 in0.0 mm
07:22 AM 70.8°F21.6°C 69.3°F20.7°C 95% Calm Calm 3.0 mph4.8 kmh 30.13 in1020.3 mb 0.00 in0.0 mm 0.00 in0.0 mm 0.00 in0.0 mm
07:27 AM 71.0°F21.7°C 69.5°F20.8°C 95% 2.0 mph NNE3.2 kmh NNE 3.0 mph4.8 kmh 30.13 in1020.3 mb 0.00 in0.0 mm 0.00 in0.0 mm 0.00 in0.0 mm
07:32 AM 71.0°F21.7°C 69.2°F20.7°C 94% 1.0 mph NE1.6 kmh NE 3.0 mph4.8 kmh 30.13 in1020.3 mb 0.00 in0.0 mm 0.00 in0.0 mm 0.00 in0.0 mm
07:37 AM 71.0°F21.7°C 69.2°F20.7°C 94% 1.8 mph NE2.9 kmh NE 3.0 mph4.8 kmh 30.13 in1020.3 mb 0.00 in0.0 mm 0.00 in0.0 mm 0.00 in0.0 mm
07:42 AM 71.1°F21.7°C 69.3°F20.7°C 94% 1.8 mph NE2.9 kmh NE 4.0 mph6.4 kmh 30.13 in1020.3 mb 0.00 in0.0 mm 0.00 in0.0 mm 0.00 in0.0 mm
07:47 AM 71.3°F21.8°C 69.1°F20.6°C 93% 1.7 mph NNE2.7 kmh NNE 4.0 mph6.4 kmh 30.13 in1020.3 mb 0.00 in0.0 mm 0.00 in0.0 mm 0.00 in0.0 mm
07:52 AM 71.4°F21.9°C 69.2°F20.7°C 93% 1.2 mph NNE1.9 kmh NNE 6.0 mph9.7 kmh 30.13 in1020.3 mb 0.00 in0.0 mm 0.00 in0.0 mm 0.00 in0.0 mm
07:57 AM 71.5°F21.9°C 69.3°F20.7°C 93% 2.7 mph NE4.3 kmh NE 6.0 mph9.7 kmh 30.13 in1020.3 mb 0.00 in0.0 mm 0.00 in0.0 mm 0.00 in0.0 mm
08:02 AM 71.5°F21.9°C 69.3°F20.7°C 93% 3.6 mph NE5.8 kmh NE 7.0 mph11.3 kmh 30.14 in1020.7 mb 0.00 in0.0 mm 0.00 in0.0 mm 0.00 in0.0 mm
08:07 AM 71.8°F22.1°C 69.6°F20.9°C 93% 2.0 mph NE3.2 kmh NE 7.0 mph11.3 kmh 30.14 in1020.7 mb 0.00 in0.0 mm 0.00 in0.0 mm 0.00 in0.0 mm
08:12 AM 72.0°F22.2°C 69.8°F21.0°C 93% 3.4 mph NE5.5 kmh NE 9.0 mph14.5 kmh 30.14 in1020.7 mb 0.00 in0.0 mm 0.00 in0.0 mm 0.00 in0.0 mm
08:17 AM 72.4°F22.4°C 70.3°F21.3°C 93% 2.0 mph N3.2 kmh N 9.0 mph14.5 kmh 30.13 in1020.3 mb 0.00 in0.0 mm 0.00 in0.0 mm 0.00 in0.0 mm
08:22 AM 72.6°F22.6°C 70.1°F21.2°C 92% 2.5 mph N4.0 kmh N 9.0 mph14.5 kmh 30.13 in1020.3 mb 0.00 in0.0 mm 0.00 in0.0 mm 0.00 in0.0 mm
08:27 AM 72.7°F22.6°C 70.2°F21.2°C 92% 2.4 mph NE3.9 kmh NE 10.0 mph16.1 kmh 30.14 in1020.7 mb 0.00 in0.0 mm 0.00 in0.0 mm 0.00 in0.0 mm
08:32 AM 72.8°F22.7°C 70.0°F21.1°C 91% 4.9 mph NE7.9 kmh NE 10.0 mph16.1 kmh 30.14 in1020.7 mb 0.00 in0.0 mm 0.00 in0.0 mm 0.00 in0.0 mm
08:37 AM 72.9°F22.7°C 70.1°F21.2°C 91% 4.0 mph NE6.4 kmh NE 10.0 mph16.1 kmh 30.14 in1020.7 mb 0.00 in0.0 mm 0.00 in0.0 mm 0.00 in0.0 mm
08:42 AM 73.3°F22.9°C 70.5°F21.4°C 91% 2.0 mph NNE3.2 kmh NNE 8.0 mph12.9 kmh 30.14 in1020.7 mb 0.00 in0.0 mm 0.00 in0.0 mm 0.00 in0.0 mm
08:47 AM 73.6°F23.1°C 70.8°F21.6°C 91% 2.1 mph NE3.4 kmh NE 8.0 mph12.9 kmh 30.14 in1020.7 mb 0.00 in0.0 mm 0.00 in0.0 mm 0.00 in0.0 mm
08:52 AM 74.1°F23.4°C 71.0°F21.7°C 90% 2.5 mph NE4.0 kmh NE 6.0 mph9.7 kmh 30.14 in1020.7 mb 0.00 in0.0 mm 0.00 in0.0 mm 0.00 in0.0 mm
08:57 AM 74.3°F23.5°C 70.8°F21.6°C 89% 2.7 mph NE4.3 kmh NE 5.0 mph8.0 kmh 30.14 in1020.7 mb 0.00 in0.0 mm 0.00 in0.0 mm 0.00 in0.0 mm
09:02 AM 74.3°F23.5°C 70.8°F21.6°C 89% 3.0 mph NE4.8 kmh NE 9.0 mph14.5 kmh 30.14 in1020.7 mb 0.00 in0.0 mm 0.00 in0.0 mm 0.00 in0.0 mm
09:07 AM 74.7°F23.7°C 71.2°F21.8°C 89% 2.0 mph NE3.2 kmh NE 9.0 mph14.5 kmh 30.14 in1020.7 mb 0.00 in0.0 mm 0.00 in0.0 mm 0.00 in0.0 mm
09:12 AM 75.1°F23.9°C 71.3°F21.8°C 88% 3.5 mph NE5.6 kmh NE 9.0 mph14.5 kmh 30.14 in1020.7 mb 0.00 in0.0 mm 0.00 in0.0 mm 0.00 in0.0 mm
09:17 AM 75.7°F24.3°C 71.6°F22.0°C 87% 3.3 mph NE5.3 kmh NE 7.0 mph11.3 kmh 30.14 in1020.7 mb 0.00 in0.0 mm 0.00 in0.0 mm 0.00 in0.0 mm
09:22 AM 76.0°F24.4°C 71.5°F21.9°C 86% 4.4 mph NE7.1 kmh NE 7.0 mph11.3 kmh 30.14 in1020.7 mb 0.00 in0.0 mm 0.00 in0.0 mm 0.00 in0.0 mm
09:27 AM 76.5°F24.7°C 72.0°F22.2°C 86% 1.6 mph NE2.6 kmh NE 7.0 mph11.3 kmh 30.14 in1020.7 mb 0.00 in0.0 mm 0.00 in0.0 mm 0.00 in0.0 mm
09:32 AM 77.1°F25.1°C 71.9°F22.2°C 84% 3.1 mph E5.0 kmh E 7.0 mph11.3 kmh 30.14 in1020.7 mb 0.00 in0.0 mm 0.00 in0.0 mm 0.00 in0.0 mm
09:37 AM 77.7°F25.4°C 72.2°F22.3°C 83% 2.7 mph ENE4.3 kmh ENE 7.0 mph11.3 kmh 30.14 in1020.7 mb 0.00 in0.0 mm 0.00 in0.0 mm 0.00 in0.0 mm
09:42 AM 77.7°F25.4°C 71.8°F22.1°C 82% 5.0 mph NE8.0 kmh NE 9.0 mph14.5 kmh 30.14 in1020.7 mb 0.00 in0.0 mm 0.00 in0.0 mm 0.00 in0.0 mm
09:47 AM 78.3°F25.7°C 72.4°F22.4°C 82% 2.4 mph NNE3.9 kmh NNE 9.0 mph14.5 kmh 30.13 in1020.3 mb 0.00 in0.0 mm 0.00 in0.0 mm 0.00 in0.0 mm
09:52 AM 78.5°F25.8°C 72.3°F22.4°C 81% 4.3 mph NE6.9 kmh NE 9.0 mph14.5 kmh 30.13 in1020.3 mb 0.00 in0.0 mm 0.00 in0.0 mm 0.00 in0.0 mm
09:57 AM 79.5°F26.4°C 72.9°F22.7°C 80% 3.6 mph NE5.8 kmh NE 9.0 mph14.5 kmh 30.13 in1020.3 mb 0.00 in0.0 mm 0.00 in0.0 mm 0.00 in0.0 mm
10:02 AM 79.9°F26.6°C 72.6°F22.6°C 78% 4.2 mph NE6.8 kmh NE 8.0 mph12.9 kmh 30.13 in1020.3 mb 0.00 in0.0 mm 0.00 in0.0 mm 0.00 in0.0 mm
10:07 AM 80.0°F26.7°C 72.5°F22.5°C 78% 4.4 mph ENE7.1 kmh ENE 11.0 mph17.7 kmh 30.13 in1020.3 mb 0.00 in0.0 mm 0.00 in0.0 mm 0.00 in0.0 mm
10:12 AM 80.6°F27.0°C 72.7°F22.6°C 77% 2.4 mph NE3.9 kmh NE 11.0 mph17.7 kmh 30.13 in1020.3 mb 0.00 in0.0 mm 0.00 in0.0 mm 0.00 in0.0 mm
10:17 AM 81.3°F27.4°C 72.4°F22.4°C 74% 2.9 mph NE4.7 kmh NE 11.0 mph17.7 kmh 30.13 in1020.3 mb 0.00 in0.0 mm 0.00 in0.0 mm 0.00 in0.0 mm
10:22 AM 81.2°F27.3°C 71.3°F21.8°C 72% 3.4 mph ENE5.5 kmh ENE 10.0 mph16.1 kmh 30.13 in1020.3 mb 0.00 in0.0 mm 0.00 in0.0 mm 0.00 in0.0 mm
10:27 AM 81.6°F27.6°C 71.9°F22.2°C 72% 5.3 mph NE8.5 kmh NE 10.0 mph16.1 kmh 30.13 in1020.3 mb 0.00 in0.0 mm 0.00 in0.0 mm 0.00 in0.0 mm
10:32 AM 81.9°F27.7°C 71.0°F21.7°C 69% 6.5 mph E10.5 kmh E 14.0 mph22.5 kmh 30.12 in1020.0 mb 0.00 in0.0 mm 0.00 in0.0 mm 0.00 in0.0 mm
10:37 AM 81.9°F27.7°C 71.0°F21.7°C 69% 6.2 mph NE10.0 kmh NE 14.0 mph22.5 kmh 30.12 in1020.0 mb 0.00 in0.0 mm 0.00 in0.0 mm 0.00 in0.0 mm
10:42 AM 82.0°F27.8°C 71.1°F21.7°C 69% 4.4 mph E7.1 kmh E 14.0 mph22.5 kmh 30.13 in1020.3 mb 0.00 in0.0 mm 0.00 in0.0 mm 0.00 in0.0 mm
10:47 AM 82.2°F27.9°C 70.4°F21.3°C 67% 6.7 mph NE10.8 kmh NE 14.0 mph22.5 kmh 30.12 in1020.0 mb 0.00 in0.0 mm 0.00 in0.0 mm 0.00 in0.0 mm
10:52 AM 82.4°F28.0°C 70.3°F21.3°C 67% 6.4 mph E10.3 kmh E 14.0 mph22.5 kmh 30.12 in1020.0 mb 0.00 in0.0 mm 0.00 in0.0 mm 0.00 in0.0 mm
10:57 AM 82.8°F28.2°C 71.0°F21.7°C 67% 2.5 mph E4.0 kmh E 14.0 mph22.5 kmh 30.12 in1020.0 mb 0.00 in0.0 mm 0.00 in0.0 mm 0.00 in0.0 mm
11:02 AM 82.8°F28.2°C 70.7°F21.5°C 67% 2.9 mph ENE4.7 kmh ENE 14.0 mph22.5 kmh 30.12 in1020.0 mb 0.00 in0.0 mm 0.00 in0.0 mm 0.00 in0.0 mm
11:07 AM 83.5°F28.6°C 71.6°F22.0°C 67% 2.8 mph NE4.5 kmh NE 12.0 mph19.3 kmh 30.11 in1019.6 mb 0.00 in0.0 mm 0.00 in0.0 mm 0.00 in0.0 mm
11:12 AM 83.6°F28.7°C 70.4°F21.3°C 64% 6.6 mph ENE10.6 kmh ENE 12.0 mph19.3 kmh 30.11 in1019.6 mb 0.00 in0.0 mm 0.00 in0.0 mm 0.00 in0.0 mm
11:17 AM 83.8°F28.8°C 71.0°F21.7°C 65% 4.5 mph E7.2 kmh E 12.0 mph19.3 kmh 30.11 in1019.6 mb 0.00 in0.0 mm 0.00 in0.0 mm 0.00 in0.0 mm
11:22 AM 84.0°F28.9°C 71.2°F21.8°C 65% 2.2 mph N3.5 kmh N 11.0 mph17.7 kmh 30.11 in1019.6 mb 0.00 in0.0 mm 0.00 in0.0 mm 0.00 in0.0 mm
11:27 AM 84.3°F29.1°C 70.8°F21.6°C 64% 3.8 mph NE6.1 kmh NE 11.0 mph17.7 kmh 30.11 in1019.6 mb 0.00 in0.0 mm 0.00 in0.0 mm 0.00 in0.0 mm
11:32 AM 85.0°F29.4°C 71.3°F21.8°C 63% 3.3 mph NNE5.3 kmh NNE 9.0 mph14.5 kmh 30.11 in1019.6 mb 0.00 in0.0 mm 0.00 in0.0 mm 0.00 in0.0 mm
11:37 AM 85.2°F29.6°C 70.5°F21.4°C 61% 2.8 mph NE4.5 kmh NE 8.0 mph12.9 kmh 30.10 in1019.3 mb 0.00 in0.0 mm 0.00 in0.0 mm 0.00 in0.0 mm
11:42 AM 85.4°F29.7°C 70.7°F21.5°C 61% 4.6 mph ENE7.4 kmh ENE 12.0 mph19.3 kmh 30.10 in1019.3 mb 0.00 in0.0 mm 0.00 in0.0 mm 0.00 in0.0 mm
11:47 AM 85.9°F29.9°C 69.9°F21.1°C 59% 2.7 mph ENE4.3 kmh ENE 12.0 mph19.3 kmh 30.10 in1019.3 mb 0.00 in0.0 mm 0.00 in0.0 mm 0.00 in0.0 mm
11:52 AM 85.7°F29.8°C 69.5°F20.8°C 58% 6.4 mph NE10.3 kmh NE 12.0 mph19.3 kmh 30.10 in1019.3 mb 0.00 in0.0 mm 0.00 in0.0 mm 0.00 in0.0 mm
11:57 AM 85.7°F29.8°C 70.5°F21.4°C 60% 3.5 mph NE5.6 kmh NE 12.0 mph19.3 kmh 30.10 in1019.3 mb 0.00 in0.0 mm 0.00 in0.0 mm 0.00 in0.0 mm
12:02 PM 85.3°F29.6°C 69.6°F20.9°C 59% 7.6 mph ENE12.2 kmh ENE 12.0 mph19.3 kmh 30.09 in1019.0 mb 0.00 in0.0 mm 0.00 in0.0 mm 0.00 in0.0 mm
12:07 PM 85.7°F29.8°C 70.0°F21.1°C 59% 6.3 mph NE10.1 kmh NE 13.0 mph20.9 kmh 30.10 in1019.3 mb 0.00 in0.0 mm 0.00 in0.0 mm 0.00 in0.0 mm
12:12 PM 85.7°F29.8°C 70.0°F21.1°C 59% 3.9 mph NE6.3 kmh NE 13.0 mph20.9 kmh 30.10 in1019.3 mb 0.00 in0.0 mm 0.00 in0.0 mm 0.00 in0.0 mm
12:16 PM 85.7°F29.8°C 70.0°F21.1°C 59% 6.8 mph NE10.9 kmh NE 13.0 mph20.9 kmh 30.09 in1019.0 mb 0.00 in0.0 mm 0.00 in0.0 mm 0.00 in0.0 mm
12:21 PM 86.2°F30.1°C 70.5°F21.4°C 59% 7.0 mph NE11.3 kmh NE 13.0 mph20.9 kmh 30.09 in1019.0 mb 0.00 in0.0 mm 0.00 in0.0 mm 0.00 in0.0 mm
12:26 PM 85.9°F29.9°C 71.2°F21.8°C 61% 1.7 mph N2.7 kmh N 13.0 mph20.9 kmh 30.09 in1019.0 mb 0.00 in0.0 mm 0.00 in0.0 mm 0.00 in0.0 mm
12:31 PM 86.1°F30.1°C 69.9°F21.1°C 58% 8.2 mph NE13.2 kmh NE 13.0 mph20.9 kmh 30.09 in1019.0 mb 0.00 in0.0 mm 0.00 in0.0 mm 0.00 in0.0 mm
12:36 PM 85.9°F29.9°C 69.7°F20.9°C 58% 4.9 mph NE7.9 kmh NE 13.0 mph20.9 kmh 30.09 in1019.0 mb 0.00 in0.0 mm 0.00 in0.0 mm 0.00 in0.0 mm
12:41 PM 86.1°F30.1°C 69.3°F20.7°C 57% 5.0 mph ENE8.0 kmh ENE 16.0 mph25.7 kmh 30.08 in1018.6 mb 0.00 in0.0 mm 0.00 in0.0 mm 0.00 in0.0 mm
12:46 PM 86.8°F30.4°C 70.5°F21.4°C 58% 3.4 mph E5.5 kmh E 18.0 mph29.0 kmh 30.08 in1018.6 mb 0.00 in0.0 mm 0.00 in0.0 mm 0.00 in0.0 mm
12:51 PM 87.0°F30.6°C 70.2°F21.2°C 57% 3.8 mph N6.1 kmh N 18.0 mph29.0 kmh 30.08 in1018.6 mb 0.00 in0.0 mm 0.00 in0.0 mm 0.00 in0.0 mm
12:56 PM 86.7°F30.4°C 68.6°F20.3°C 55% 6.2 mph NE10.0 kmh NE 18.0 mph29.0 kmh 30.08 in1018.6 mb 0.00 in0.0 mm 0.00 in0.0 mm 0.00 in0.0 mm
01:01 PM 86.5°F30.3°C 69.7°F20.9°C 57% 5.9 mph ENE9.5 kmh ENE 13.0 mph20.9 kmh 30.08 in1018.6 mb 0.00 in0.0 mm 0.00 in0.0 mm 0.00 in0.0 mm
01:06 PM 87.2°F30.7°C 70.1°F21.2°C 57% 6.5 mph NE10.5 kmh NE 13.0 mph20.9 kmh 30.08 in1018.6 mb 0.00 in0.0 mm 0.00 in0.0 mm 0.00 in0.0 mm
01:11 PM 87.7°F30.9°C 70.8°F21.6°C 57% 4.1 mph NNE6.6 kmh NNE 13.0 mph20.9 kmh 30.07 in1018.3 mb 0.00 in0.0 mm 0.00 in0.0 mm 0.00 in0.0 mm
01:16 PM 87.0°F30.6°C 69.9°F21.1°C 57% 3.7 mph ENE6.0 kmh ENE 16.0 mph25.7 kmh 30.07 in1018.3 mb 0.00 in0.0 mm 0.00 in0.0 mm 0.00 in0.0 mm
01:21 PM 87.1°F30.6°C 70.3°F21.3°C 57% 5.1 mph ENE8.2 kmh ENE 16.0 mph25.7 kmh 30.07 in1018.3 mb 0.00 in0.0 mm 0.00 in0.0 mm 0.00 in0.0 mm
01:26 PM 87.4°F30.8°C 70.0°F21.1°C 56% 3.9 mph NE6.3 kmh NE 16.0 mph25.7 kmh 30.07 in1018.3 mb 0.00 in0.0 mm 0.00 in0.0 mm 0.00 in0.0 mm
01:31 PM 87.0°F30.6°C 70.2°F21.2°C 57% 6.4 mph NE10.3 kmh NE 16.0 mph25.7 kmh 30.07 in1018.3 mb 0.00 in0.0 mm 0.00 in0.0 mm 0.00 in0.0 mm
01:36 PM 87.1°F30.6°C 70.5°F21.4°C 58% 6.7 mph NE10.8 kmh NE 15.0 mph24.1 kmh 30.07 in1018.3 mb 0.00 in0.0 mm 0.00 in0.0 mm 0.00 in0.0 mm
01:41 PM 86.7°F30.4°C 70.4°F21.3°C 58% 6.1 mph NE9.8 kmh NE 15.0 mph24.1 kmh 30.06 in1017.9 mb 0.00 in0.0 mm 0.00 in0.0 mm 0.00 in0.0 mm
01:46 PM 87.0°F30.6°C 69.7°F20.9°C 56% 7.0 mph ENE11.3 kmh ENE 15.0 mph24.1 kmh 30.06 in1017.9 mb 0.00 in0.0 mm 0.00 in0.0 mm 0.00 in0.0 mm
01:51 PM 87.2°F30.7°C 70.1°F21.2°C 57% 4.4 mph NE7.1 kmh NE 14.0 mph22.5 kmh 30.06 in1017.9 mb 0.00 in0.0 mm 0.00 in0.0 mm 0.00 in0.0 mm
01:56 PM 87.4°F30.8°C 70.6°F21.4°C 57% 2.8 mph NNE4.5 kmh NNE 14.0 mph22.5 kmh 30.05 in1017.6 mb 0.00 in0.0 mm 0.00 in0.0 mm 0.00 in0.0 mm
02:01 PM 87.2°F30.7°C 70.4°F21.3°C 57% 6.0 mph NE9.7 kmh NE 14.0 mph22.5 kmh 30.05 in1017.6 mb 0.00 in0.0 mm 0.00 in0.0 mm 0.00 in0.0 mm
02:06 PM 87.4°F30.8°C 70.3°F21.3°C 57% 5.1 mph NE8.2 kmh NE 13.0 mph20.9 kmh 30.05 in1017.6 mb 0.00 in0.0 mm 0.00 in0.0 mm 0.00 in0.0 mm
02:11 PM 87.9°F31.1°C 71.0°F21.7°C 57% 5.8 mph NE9.3 kmh NE 13.0 mph20.9 kmh 30.05 in1017.6 mb 0.00 in0.0 mm 0.00 in0.0 mm 0.00 in0.0 mm
02:16 PM 88.1°F31.2°C 70.7°F21.5°C 56% 4.7 mph NE7.6 kmh NE 13.0 mph20.9 kmh 30.04 in1017.3 mb 0.00 in0.0 mm 0.00 in0.0 mm 0.00 in0.0 mm
02:21 PM 88.4°F31.3°C 70.2°F21.2°C 55% 4.2 mph NE6.8 kmh NE 13.0 mph20.9 kmh 30.04 in1017.3 mb 0.00 in0.0 mm 0.00 in0.0 mm 0.00 in0.0 mm
02:26 PM 88.5°F31.4°C 71.6°F22.0°C 57% 3.5 mph NNE5.6 kmh NNE 17.0 mph27.4 kmh 30.04 in1017.3 mb 0.00 in0.0 mm 0.00 in0.0 mm 0.00 in0.0 mm
02:31 PM 88.2°F31.2°C 70.8°F21.6°C 56% 4.6 mph NNE7.4 kmh NNE 17.0 mph27.4 kmh 30.04 in1017.3 mb 0.00 in0.0 mm 0.00 in0.0 mm 0.00 in0.0 mm
02:36 PM 88.2°F31.2°C 71.3°F21.8°C 57% 6.1 mph NE9.8 kmh NE 17.0 mph27.4 kmh 30.04 in1017.3 mb 0.00 in0.0 mm 0.00 in0.0 mm 0.00 in0.0 mm
02:41 PM 88.4°F31.3°C 71.0°F21.7°C 56% 5.5 mph NE8.9 kmh NE 16.0 mph25.7 kmh 30.03 in1016.9 mb 0.00 in0.0 mm 0.00 in0.0 mm 0.00 in0.0 mm
02:46 PM 88.9°F31.6°C 71.4°F21.9°C 56% 4.4 mph NE7.1 kmh NE 15.0 mph24.1 kmh 30.03 in1016.9 mb 0.00 in0.0 mm 0.00 in0.0 mm 0.00 in0.0 mm
02:51 PM 88.8°F31.6°C 71.3°F21.8°C 56% 3.8 mph NE6.1 kmh NE 16.0 mph25.7 kmh 30.02 in1016.6 mb 0.00 in0.0 mm 0.00 in0.0 mm 0.00 in0.0 mm
02:56 PM 88.8°F31.6°C 70.8°F21.6°C 55% 6.6 mph NE10.6 kmh NE 16.0 mph25.7 kmh 30.02 in1016.6 mb 0.00 in0.0 mm 0.00 in0.0 mm 0.00 in0.0 mm
03:01 PM 88.7°F31.5°C 71.2°F21.8°C 56% 5.1 mph NE8.2 kmh NE 16.0 mph25.7 kmh 30.02 in1016.6 mb 0.00 in0.0 mm 0.00 in0.0 mm 0.00 in0.0 mm
03:06 PM 89.0°F31.7°C 71.5°F21.9°C 56% 4.8 mph ENE7.7 kmh ENE 16.0 mph25.7 kmh 30.02 in1016.6 mb 0.00 in0.0 mm 0.00 in0.0 mm 0.00 in0.0 mm
03:11 PM 88.5°F31.4°C 70.5°F21.4°C 55% 5.2 mph NE8.4 kmh NE 13.0 mph20.9 kmh 30.02 in1016.6 mb 0.00 in0.0 mm 0.00 in0.0 mm 0.00 in0.0 mm
03:16 PM 88.5°F31.4°C 71.1°F21.7°C 56% 2.7 mph NE4.3 kmh NE 13.0 mph20.9 kmh 30.02 in1016.6 mb 0.00 in0.0 mm 0.00 in0.0 mm 0.00 in0.0 mm
03:21 PM 88.6°F31.4°C 70.6°F21.4°C 55% 4.6 mph NE7.4 kmh NE 13.0 mph20.9 kmh 30.02 in1016.6 mb 0.00 in0.0 mm 0.00 in0.0 mm 0.00 in0.0 mm
03:26 PM 88.8°F31.6°C 71.3°F21.8°C 56% 4.2 mph NE6.8 kmh NE 14.0 mph22.5 kmh 30.02 in1016.6 mb 0.00 in0.0 mm 0.00 in0.0 mm 0.00 in0.0 mm
03:31 PM 88.2°F31.2°C 70.8°F21.6°C 56% 4.2 mph NE6.8 kmh NE 14.0 mph22.5 kmh 30.02 in1016.6 mb 0.00 in0.0 mm 0.00 in0.0 mm 0.00 in0.0 mm
03:36 PM 88.5°F31.4°C 71.3°F21.8°C 57% 4.3 mph NE6.9 kmh NE 14.0 mph22.5 kmh 30.02 in1016.6 mb 0.00 in0.0 mm 0.00 in0.0 mm 0.00 in0.0 mm
03:41 PM 89.0°F31.7°C 71.0°F21.7°C 55% 7.2 mph NE11.6 kmh NE 14.0 mph22.5 kmh 30.01 in1016.3 mb 0.00 in0.0 mm 0.00 in0.0 mm 0.00 in0.0 mm
03:46 PM 89.0°F31.7°C 71.0°F21.7°C 55% 5.7 mph NE9.2 kmh NE 14.0 mph22.5 kmh 30.02 in1016.6 mb 0.00 in0.0 mm 0.00 in0.0 mm 0.00 in0.0 mm
03:51 PM 89.0°F31.7°C 70.7°F21.5°C 55% 6.5 mph NE10.5 kmh NE 15.0 mph24.1 kmh 30.01 in1016.3 mb 0.00 in0.0 mm 0.00 in0.0 mm 0.00 in0.0 mm
03:56 PM 88.5°F31.4°C 71.1°F21.7°C 56% 6.4 mph NE10.3 kmh NE 15.0 mph24.1 kmh 30.01 in1016.3 mb 0.00 in0.0 mm 0.00 in0.0 mm 0.00 in0.0 mm
04:01 PM 88.4°F31.3°C 71.0°F21.7°C 56% 7.3 mph NE11.7 kmh NE 15.0 mph24.1 kmh 30.01 in1016.3 mb 0.00 in0.0 mm 0.00 in0.0 mm 0.00 in0.0 mm
04:06 PM 88.3°F31.3°C 69.8°F21.0°C 54% 7.2 mph NE11.6 kmh NE 15.0 mph24.1 kmh 30.01 in1016.3 mb 0.00 in0.0 mm 0.00 in0.0 mm 0.00 in0.0 mm
04:11 PM 88.4°F31.3°C 70.4°F21.3°C 55% 3.6 mph NE5.8 kmh NE 13.0 mph20.9 kmh 30.01 in1016.3 mb 0.00 in0.0 mm 0.00 in0.0 mm 0.00 in0.0 mm
04:16 PM 88.7°F31.5°C 70.5°F21.4°C 55% 4.4 mph NE7.1 kmh NE 13.0 mph20.9 kmh 30.01 in1016.3 mb 0.00 in0.0 mm 0.00 in0.0 mm 0.00 in0.0 mm
04:21 PM 88.9°F31.6°C 70.3°F21.3°C 54% 8.2 mph NE13.2 kmh NE 16.0 mph25.7 kmh 30.01 in1016.3 mb 0.00 in0.0 mm 0.00 in0.0 mm 0.00 in0.0 mm
04:26 PM 88.4°F31.3°C 70.4°F21.3°C 55% 6.2 mph NE10.0 kmh NE 16.0 mph25.7 kmh 30.01 in1016.3 mb 0.00 in0.0 mm 0.00 in0.0 mm 0.00 in0.0 mm
04:31 PM 88.6°F31.4°C 70.1°F21.2°C 54% 6.5 mph NE10.5 kmh NE 16.0 mph25.7 kmh 30.01 in1016.3 mb 0.00 in0.0 mm 0.00 in0.0 mm 0.00 in0.0 mm
04:36 PM 88.8°F31.6°C 70.8°F21.6°C 55% 2.5 mph NE4.0 kmh NE 16.0 mph25.7 kmh 30.01 in1016.3 mb 0.00 in0.0 mm 0.00 in0.0 mm 0.00 in0.0 mm
04:41 PM 88.7°F31.5°C 70.7°F21.5°C 55% 5.5 mph NE8.9 kmh NE 14.0 mph22.5 kmh 30.01 in1016.3 mb 0.00 in0.0 mm 0.00 in0.0 mm 0.00 in0.0 mm
04:46 PM 88.8°F31.6°C 70.8°F21.6°C 55% 5.7 mph NE9.2 kmh NE 12.0 mph19.3 kmh 30.01 in1016.3 mb 0.00 in0.0 mm 0.00 in0.0 mm 0.00 in0.0 mm
04:51 PM 88.8°F31.6°C 70.8°F21.6°C 55% 6.0 mph NE9.7 kmh NE 12.0 mph19.3 kmh 30.01 in1016.3 mb 0.00 in0.0 mm 0.00 in0.0 mm 0.00 in0.0 mm
04:56 PM 88.8°F31.6°C 70.8°F21.6°C 55% 2.7 mph NE4.3 kmh NE 12.0 mph19.3 kmh 30.01 in1016.3 mb 0.00 in0.0 mm 0.00 in0.0 mm 0.00 in0.0 mm
05:01 PM 88.6°F31.4°C 70.9°F21.6°C 56% 4.7 mph NE7.6 kmh NE 11.0 mph17.7 kmh 30.01 in1016.3 mb 0.00 in0.0 mm 0.00 in0.0 mm 0.00 in0.0 mm
05:06 PM 88.6°F31.4°C 71.2°F21.8°C 56% 4.6 mph NE7.4 kmh NE 11.0 mph17.7 kmh 30.01 in1016.3 mb 0.00 in0.0 mm 0.00 in0.0 mm 0.00 in0.0 mm
05:11 PM 88.7°F31.5°C 71.2°F21.8°C 56% 3.6 mph NNE5.8 kmh NNE 11.0 mph17.7 kmh 30.00 in1015.9 mb 0.00 in0.0 mm 0.00 in0.0 mm 0.00 in0.0 mm
05:15 PM 88.7°F31.5°C 70.7°F21.5°C 55% 5.7 mph NE9.2 kmh NE 12.0 mph19.3 kmh 30.00 in1015.9 mb 0.00 in0.0 mm 0.00 in0.0 mm 0.00 in0.0 mm
05:20 PM 88.6°F31.4°C 70.4°F21.3°C 55% 3.2 mph NE5.1 kmh NE 12.0 mph19.3 kmh 30.00 in1015.9 mb 0.00 in0.0 mm 0.00 in0.0 mm 0.00 in0.0 mm
05:25 PM 88.6°F31.4°C 71.2°F21.8°C 56% 6.2 mph NE10.0 kmh NE 12.0 mph19.3 kmh 30.01 in1016.3 mb 0.00 in0.0 mm 0.00 in0.0 mm 0.00 in0.0 mm
05:30 PM 88.4°F31.3°C 71.0°F21.7°C 56% 3.8 mph NE6.1 kmh NE 12.0 mph19.3 kmh 30.01 in1016.3 mb 0.00 in0.0 mm 0.00 in0.0 mm 0.00 in0.0 mm
05:35 PM 88.4°F31.3°C 70.7°F21.5°C 56% 3.9 mph NE6.3 kmh NE 10.0 mph16.1 kmh 30.01 in1016.3 mb 0.00 in0.0 mm 0.00 in0.0 mm 0.00 in0.0 mm
05:40 PM 88.4°F31.3°C 71.0°F21.7°C 56% 2.5 mph NNE4.0 kmh NNE 10.0 mph16.1 kmh 30.01 in1016.3 mb 0.00 in0.0 mm 0.00 in0.0 mm 0.00 in0.0 mm
05:45 PM 88.3°F31.3°C 70.9°F21.6°C 56% 5.2 mph NE8.4 kmh NE 10.0 mph16.1 kmh 30.00 in1015.9 mb 0.00 in0.0 mm 0.00 in0.0 mm 0.00 in0.0 mm
05:50 PM 88.1°F31.2°C 70.7°F21.5°C 56% 4.1 mph NE6.6 kmh NE 11.0 mph17.7 kmh 30.01 in1016.3 mb 0.00 in0.0 mm 0.00 in0.0 mm 0.00 in0.0 mm
05:55 PM 88.0°F31.1°C 69.8°F21.0°C 55% 5.4 mph NE8.7 kmh NE 12.0 mph19.3 kmh 30.01 in1016.3 mb 0.00 in0.0 mm 0.00 in0.0 mm 0.00 in0.0 mm
06:00 PM 87.9°F31.1°C 70.5°F21.4°C 56% 5.3 mph NE8.5 kmh NE 12.0 mph19.3 kmh 30.01 in1016.3 mb 0.00 in0.0 mm 0.00 in0.0 mm 0.00 in0.0 mm
06:05 PM 87.9°F31.1°C 70.2°F21.2°C 56% 4.8 mph NE7.7 kmh NE 12.0 mph19.3 kmh 30.01 in1016.3 mb 0.00 in0.0 mm 0.00 in0.0 mm 0.00 in0.0 mm
06:10 PM 87.8°F31.0°C 70.4°F21.3°C 56% 3.4 mph NE5.5 kmh NE 12.0 mph19.3 kmh 30.01 in1016.3 mb 0.00 in0.0 mm 0.00 in0.0 mm 0.00 in0.0 mm
06:15 PM 87.6°F30.9°C 70.7°F21.5°C 57% 3.4 mph NE5.5 kmh NE 11.0 mph17.7 kmh 30.01 in1016.3 mb 0.00 in0.0 mm 0.00 in0.0 mm 0.00 in0.0 mm
06:20 PM 87.2°F30.7°C 70.9°F21.6°C 58% 5.0 mph NE8.0 kmh NE 10.0 mph16.1 kmh 30.01 in1016.3 mb 0.00 in0.0 mm 0.00 in0.0 mm 0.00 in0.0 mm
06:25 PM 86.9°F30.5°C 71.1°F21.7°C 59% 2.3 mph NE3.7 kmh NE 10.0 mph16.1 kmh 30.01 in1016.3 mb 0.00 in0.0 mm 0.00 in0.0 mm 0.00 in0.0 mm
06:30 PM 86.7°F30.4°C 71.4°F21.9°C 60% 2.4 mph NE3.9 kmh NE 10.0 mph16.1 kmh 30.01 in1016.3 mb 0.00 in0.0 mm 0.00 in0.0 mm 0.00 in0.0 mm
06:35 PM 86.5°F30.3°C 71.2°F21.8°C 60% 1.9 mph NE3.1 kmh NE 10.0 mph16.1 kmh 30.01 in1016.3 mb 0.00 in0.0 mm 0.00 in0.0 mm 0.00 in0.0 mm
06:40 PM 86.1°F30.1°C 71.4°F21.9°C 61% 2.5 mph NE4.0 kmh NE 7.0 mph11.3 kmh 30.01 in1016.3 mb 0.00 in0.0 mm 0.00 in0.0 mm 0.00 in0.0 mm
06:45 PM 85.9°F29.9°C 71.2°F21.8°C 61% 3.4 mph NE5.5 kmh NE 7.0 mph11.3 kmh 30.01 in1016.3 mb 0.00 in0.0 mm 0.00 in0.0 mm 0.00 in0.0 mm
06:50 PM 85.7°F29.8°C 71.2°F21.8°C 62% 2.7 mph NE4.3 kmh NE 7.0 mph11.3 kmh 30.01 in1016.3 mb 0.00 in0.0 mm 0.00 in0.0 mm 0.00 in0.0 mm
06:55 PM 85.4°F29.7°C 71.2°F21.8°C 62% Calm Calm 7.0 mph11.3 kmh 30.01 in1016.3 mb 0.00 in0.0 mm 0.00 in0.0 mm 0.00 in0.0 mm
07:00 PM 85.0°F29.4°C 71.0°F21.7°C 63% 1.4 mph NNE2.3 kmh NNE 6.0 mph9.7 kmh 30.01 in1016.3 mb 0.00 in0.0 mm 0.00 in0.0 mm 0.00 in0.0 mm
07:05 PM 84.7°F29.3°C 71.4°F21.9°C 64% Calm Calm 6.0 mph9.7 kmh 30.01 in1016.3 mb 0.00 in0.0 mm 0.00 in0.0 mm 0.00 in0.0 mm
07:10 PM 84.5°F29.2°C 71.3°F21.8°C 64% Calm Calm 3.0 mph4.8 kmh 30.01 in1016.3 mb 0.00 in0.0 mm 0.00 in0.0 mm 0.00 in0.0 mm
07:15 PM 84.2°F29.0°C 71.2°F21.8°C 65% 1.2 mph NNE1.9 kmh NNE 3.0 mph4.8 kmh 30.01 in1016.3 mb 0.00 in0.0 mm 0.00 in0.0 mm 0.00 in0.0 mm
07:20 PM 84.0°F28.9°C 71.2°F21.8°C 65% 1.7 mph N2.7 kmh N 3.0 mph4.8 kmh 30.01 in1016.3 mb 0.00 in0.0 mm 0.00 in0.0 mm 0.00 in0.0 mm
07:25 PM 83.8°F28.8°C 71.5°F21.9°C 66% 2.4 mph NNE3.9 kmh NNE 7.0 mph11.3 kmh 30.01 in1016.3 mb 0.00 in0.0 mm 0.00 in0.0 mm 0.00 in0.0 mm
07:30 PM 83.7°F28.7°C 71.4°F21.9°C 66% 2.8 mph NE4.5 kmh NE 7.0 mph11.3 kmh 30.01 in1016.3 mb 0.00 in0.0 mm 0.00 in0.0 mm 0.00 in0.0 mm
07:35 PM 83.6°F28.7°C 71.3°F21.8°C 66% 1.7 mph NE2.7 kmh NE 7.0 mph11.3 kmh 30.01 in1016.3 mb 0.00 in0.0 mm 0.00 in0.0 mm 0.00 in0.0 mm
07:40 PM 83.4°F28.6°C 71.1°F21.7°C 66% 2.5 mph NE4.0 kmh NE 7.0 mph11.3 kmh 30.02 in1016.6 mb 0.00 in0.0 mm 0.00 in0.0 mm 0.00 in0.0 mm
07:45 PM 83.2°F28.4°C 71.4°F21.9°C 67% 2.1 mph NE3.4 kmh NE 7.0 mph11.3 kmh 30.02 in1016.6 mb 0.00 in0.0 mm 0.00 in0.0 mm 0.00 in0.0 mm
07:50 PM 82.9°F28.3°C 71.1°F21.7°C 67% 3.1 mph NE5.0 kmh NE 7.0 mph11.3 kmh 30.02 in1016.6 mb 0.00 in0.0 mm 0.00 in0.0 mm 0.00 in0.0 mm
07:55 PM 82.7°F28.2°C 71.3°F21.8°C 68% 2.6 mph NE4.2 kmh NE 7.0 mph11.3 kmh 30.02 in1016.6 mb 0.00 in0.0 mm 0.00 in0.0 mm 0.00 in0.0 mm
08:00 PM 82.5°F28.1°C 71.1°F21.7°C 68% 2.4 mph NE3.9 kmh NE 7.0 mph11.3 kmh 30.02 in1016.6 mb 0.00 in0.0 mm 0.00 in0.0 mm 0.00 in0.0 mm
08:05 PM 82.4°F28.0°C 71.0°F21.7°C 68% 2.4 mph NE3.9 kmh NE 7.0 mph11.3 kmh 30.02 in1016.6 mb 0.00 in0.0 mm 0.00 in0.0 mm 0.00 in0.0 mm
08:10 PM 82.3°F27.9°C 70.9°F21.6°C 68% 1.4 mph NE2.3 kmh NE 6.0 mph9.7 kmh 30.02 in1016.6 mb 0.00 in0.0 mm 0.00 in0.0 mm 0.00 in0.0 mm
08:15 PM 82.2°F27.9°C 71.3°F21.8°C 69% 2.5 mph NE4.0 kmh NE 6.0 mph9.7 kmh 30.02 in1016.6 mb 0.00 in0.0 mm 0.00 in0.0 mm 0.00 in0.0 mm
08:20 PM 82.1°F27.8°C 71.2°F21.8°C 69% 1.6 mph NE2.6 kmh NE 6.0 mph9.7 kmh 30.03 in1016.9 mb 0.00 in0.0 mm 0.00 in0.0 mm 0.00 in0.0 mm
08:25 PM 81.9°F27.7°C 71.0°F21.7°C 69% 1.0 mph NE1.6 kmh NE 6.0 mph9.7 kmh 30.03 in1016.9 mb 0.00 in0.0 mm 0.00 in0.0 mm 0.00 in0.0 mm
08:30 PM 81.8°F27.7°C 70.6°F21.4°C 69% 1.3 mph NE2.1 kmh NE 6.0 mph9.7 kmh 30.03 in1016.9 mb 0.00 in0.0 mm 0.00 in0.0 mm 0.00 in0.0 mm
08:35 PM 81.6°F27.6°C 71.1°F21.7°C 70% Calm Calm 2.0 mph3.2 kmh 30.03 in1016.9 mb 0.00 in0.0 mm 0.00 in0.0 mm 0.00 in0.0 mm
08:41 PM 81.5°F27.5°C 71.0°F21.7°C 70% 1.0 mph NE1.6 kmh NE 2.0 mph3.2 kmh 30.03 in1016.9 mb 0.00 in0.0 mm 0.00 in0.0 mm 0.00 in0.0 mm
08:45 PM 81.4°F27.4°C 70.9°F21.6°C 70% Calm Calm 2.0 mph3.2 kmh 30.03 in1016.9 mb 0.00 in0.0 mm 0.00 in0.0 mm 0.00 in0.0 mm
08:51 PM 81.2°F27.3°C 71.1°F21.7°C 71% 1.0 mph NNE1.6 kmh NNE 1.0 mph1.6 kmh 30.04 in1017.3 mb 0.00 in0.0 mm 0.00 in0.0 mm 0.00 in0.0 mm
08:56 PM 81.0°F27.2°C 70.9°F21.6°C 71% 1.4 mph NNE2.3 kmh NNE 2.0 mph3.2 kmh 30.04 in1017.3 mb 0.00 in0.0 mm 0.00 in0.0 mm 0.00 in0.0 mm
09:01 PM 80.8°F27.1°C 71.1°F21.7°C 72% 1.0 mph ENE1.6 kmh ENE 2.0 mph3.2 kmh 30.03 in1016.9 mb 0.00 in0.0 mm 0.00 in0.0 mm 0.00 in0.0 mm
09:05 PM 80.7°F27.1°C 71.0°F21.7°C 72% 1.0 mph NE1.6 kmh NE 2.0 mph3.2 kmh 30.04 in1017.3 mb 0.00 in0.0 mm 0.00 in0.0 mm 0.00 in0.0 mm
09:11 PM 80.6°F27.0°C 70.9°F21.6°C 72% 1.5 mph NE2.4 kmh NE 3.0 mph4.8 kmh 30.03 in1016.9 mb 0.00 in0.0 mm 0.00 in0.0 mm 0.00 in0.0 mm
09:16 PM 80.6°F27.0°C 70.9°F21.6°C 72% 1.6 mph NE2.6 kmh NE 3.0 mph4.8 kmh 30.04 in1017.3 mb 0.00 in0.0 mm 0.00 in0.0 mm 0.00 in0.0 mm
09:21 PM 80.4°F26.9°C 70.8°F21.6°C 72% 1.0 mph NE1.6 kmh NE 4.0 mph6.4 kmh 30.04 in1017.3 mb 0.00 in0.0 mm 0.00 in0.0 mm 0.00 in0.0 mm
09:26 PM 80.2°F26.8°C 70.6°F21.4°C 72% 1.0 mph NNE1.6 kmh NNE 4.0 mph6.4 kmh 30.04 in1017.3 mb 0.00 in0.0 mm 0.00 in0.0 mm 0.00 in0.0 mm
09:31 PM 80.1°F26.7°C 70.7°F21.5°C 73% 1.5 mph NE2.4 kmh NE 4.0 mph6.4 kmh 30.04 in1017.3 mb 0.00 in0.0 mm 0.00 in0.0 mm 0.00 in0.0 mm
09:36 PM 80.0°F26.7°C 70.6°F21.4°C 73% 1.0 mph NE1.6 kmh NE 4.0 mph6.4 kmh 30.04 in1017.3 mb 0.00 in0.0 mm 0.00 in0.0 mm 0.00 in0.0 mm
09:41 PM 79.9°F26.6°C 70.7°F21.5°C 73% 1.8 mph NE2.9 kmh NE 4.0 mph6.4 kmh 30.04 in1017.3 mb 0.00 in0.0 mm 0.00 in0.0 mm 0.00 in0.0 mm
09:46 PM 79.8°F26.6°C 70.6°F21.4°C 73% 1.4 mph ENE2.3 kmh ENE 4.0 mph6.4 kmh 30.04 in1017.3 mb 0.00 in0.0 mm 0.00 in0.0 mm 0.00 in0.0 mm
09:51 PM 79.7°F26.5°C 70.5°F21.4°C 73% 1.9 mph NE3.1 kmh NE 4.0 mph6.4 kmh 30.04 in1017.3 mb 0.00 in0.0 mm 0.00 in0.0 mm 0.00 in0.0 mm
09:56 PM 79.7°F26.5°C 70.9°F21.6°C 74% 1.0 mph NE1.6 kmh NE 4.0 mph6.4 kmh 30.04 in1017.3 mb 0.00 in0.0 mm 0.00 in0.0 mm 0.00 in0.0 mm
10:01 PM 79.5°F26.4°C 70.7°F21.5°C 74% 1.1 mph NNE1.8 kmh NNE 4.0 mph6.4 kmh 30.05 in1017.6 mb 0.00 in0.0 mm 0.00 in0.0 mm 0.00 in0.0 mm
10:06 PM 79.3°F26.3°C 70.5°F21.4°C 74% 1.0 mph NE1.6 kmh NE 3.0 mph4.8 kmh 30.05 in1017.6 mb 0.00 in0.0 mm 0.00 in0.0 mm 0.00 in0.0 mm
10:11 PM 79.0°F26.1°C 70.4°F21.3°C 75% Calm Calm 3.0 mph4.8 kmh 30.05 in1017.6 mb 0.00 in0.0 mm 0.00 in0.0 mm 0.00 in0.0 mm
10:15 PM 78.9°F26.1°C 70.5°F21.4°C 75% Calm Calm 2.0 mph3.2 kmh 30.05 in1017.6 mb 0.00 in0.0 mm 0.00 in0.0 mm 0.00 in0.0 mm
10:20 PM 78.7°F25.9°C 70.7°F21.5°C 76% Calm Calm 2.0 mph3.2 kmh 30.05 in1017.6 mb 0.00 in0.0 mm 0.00 in0.0 mm 0.00 in0.0 mm
10:25 PM 78.5°F25.8°C 70.5°F21.4°C 76% 1.7 mph NE2.7 kmh NE 2.0 mph3.2 kmh 30.05 in1017.6 mb 0.00 in0.0 mm 0.00 in0.0 mm 0.00 in0.0 mm
10:30 PM 78.3°F25.7°C 70.6°F21.4°C 77% 2.1 mph NE3.4 kmh NE 3.0 mph4.8 kmh 30.05 in1017.6 mb 0.00 in0.0 mm 0.00 in0.0 mm 0.00 in0.0 mm
10:35 PM 78.1°F25.6°C 70.4°F21.3°C 77% 1.0 mph NE1.6 kmh NE 3.0 mph4.8 kmh 30.05 in1017.6 mb 0.00 in0.0 mm 0.00 in0.0 mm 0.00 in0.0 mm
10:40 PM 78.0°F25.6°C 70.3°F21.3°C 77% Calm Calm 3.0 mph4.8 kmh 30.04 in1017.3 mb 0.00 in0.0 mm 0.00 in0.0 mm 0.00 in0.0 mm
10:45 PM 77.8°F25.4°C 70.2°F21.2°C 77% Calm Calm 3.0 mph4.8 kmh 30.05 in1017.6 mb 0.00 in0.0 mm 0.00 in0.0 mm 0.00 in0.0 mm
10:50 PM 77.6°F25.3°C 70.2°F21.2°C 78% Calm Calm 2.0 mph3.2 kmh 30.05 in1017.6 mb 0.00 in0.0 mm 0.00 in0.0 mm 0.00 in0.0 mm
10:55 PM 77.5°F25.3°C 70.2°F21.2°C 78% Calm Calm 1.0 mph1.6 kmh 30.05 in1017.6 mb 0.00 in0.0 mm 0.00 in0.0 mm 0.00 in0.0 mm
11:00 PM 77.3°F25.2°C 70.0°F21.1°C 78% Calm Calm 1.0 mph1.6 kmh 30.05 in1017.6 mb 0.00 in0.0 mm 0.00 in0.0 mm 0.00 in0.0 mm
11:05 PM 77.2°F25.1°C 70.3°F21.3°C 79% Calm Calm -- 30.05 in1017.6 mb 0.00 in0.0 mm 0.00 in0.0 mm 0.00 in0.0 mm
11:10 PM 77.1°F25.1°C 70.2°F21.2°C 79% Calm Calm -- 30.05 in1017.6 mb 0.00 in0.0 mm 0.00 in0.0 mm 0.00 in0.0 mm
11:15 PM 77.1°F25.1°C 70.2°F21.2°C 79% 1.0 mph NE1.6 kmh NE 1.0 mph1.6 kmh 30.05 in1017.6 mb 0.00 in0.0 mm 0.00 in0.0 mm 0.00 in0.0 mm
11:20 PM 77.0°F25.0°C 70.1°F21.2°C 79% 1.1 mph NE1.8 kmh NE 3.0 mph4.8 kmh 30.05 in1017.6 mb 0.00 in0.0 mm 0.00 in0.0 mm 0.00 in0.0 mm
11:25 PM 76.8°F24.9°C 69.8°F21.0°C 79% Calm Calm 3.0 mph4.8 kmh 30.05 in1017.6 mb 0.00 in0.0 mm 0.00 in0.0 mm 0.00 in0.0 mm
11:30 PM 76.7°F24.8°C 70.2°F21.2°C 80% Calm Calm 3.0 mph4.8 kmh 30.05 in1017.6 mb 0.00 in0.0 mm 0.00 in0.0 mm 0.00 in0.0 mm
11:35 PM 76.5°F24.7°C 70.0°F21.1°C 80% Calm Calm 3.0 mph4.8 kmh 30.05 in1017.6 mb 0.00 in0.0 mm 0.00 in0.0 mm 0.00 in0.0 mm
11:40 PM 76.5°F24.7°C 70.0°F21.1°C 80% Calm Calm 1.0 mph1.6 kmh 30.04 in1017.3 mb 0.00 in0.0 mm 0.00 in0.0 mm 0.00 in0.0 mm
11:45 PM 76.4°F24.7°C 69.9°F21.1°C 80% 1.0 mph NE1.6 kmh NE 2.0 mph3.2 kmh 30.04 in1017.3 mb 0.00 in0.0 mm 0.00 in0.0 mm 0.00 in0.0 mm
11:50 PM 76.5°F24.7°C 70.0°F21.1°C 80% Calm Calm 2.0 mph3.2 kmh 30.04 in1017.3 mb 0.00 in0.0 mm 0.00 in0.0 mm 0.00 in0.0 mm
11:55 PM 76.5°F24.7°C 69.9°F21.1°C 80% Calm Calm 2.0 mph3.2 kmh 30.04 in1017.3 mb 0.00 in0.0 mm 0.00 in0.0 mm 0.00 in0.0 mm